sensor_id;sensor_type;location;lat;lon;timestamp;temperature;humidity
7512;DHT22;9999;48.780;9.146;2024-01-15T00:00:25;-1.60;99.90
7512;DHT22;9999;48.780;9.146;2024-01-15T00:02:52;-1.60;99.90
7512;DHT22;9999;48.780;9.146;2024-01-15T00:05:19;-1.60;99.90
7512;DHT22;9999;48.780;9.146;2024-01-15T00:07:45;-1.70;99.90
7512;DHT22;9999;48.780;9.146;2024-01-15T00:10:14;-1.60;99.90
7512;DHT22;9999;48.780;9.146;2024-01-15T00:12:40;-1.70;99.90
7512;DHT22;9999;48.780;9.146;2024-01-15T00:15:08;-1.60;99.90
7512;DHT22;9999;48.780;9.146;2024-01-15T00:17:35;-1.70;99.90
7512;DHT22;9999;48.780;9.146;2024-01-15T00:20:02;-1.70;99.90
7512;DHT22;9999;48.780;9.146;2024-01-15T00:22:29;-1.80;99.90
7512;DHT22;9999;48.780;9.146;2024-01-15T00:24:57;-1.70;99.90
7512;DHT22;9999;48.780;9.146;2024-01-15T00:27:25;-1.80;99.90
7512;DHT22;9999;48.780;9.146;2024-01-15T00:29:52;-1.80;99.90
7512;DHT22;9999;48.780;9.146;2024-01-15T00:32:20;-1.80;99.90
7512;DHT22;9999;48.780;9.146;2024-01-15T00:34:46;-1.80;99.90
7512;DHT22;9999;48.780;9.146;2024-01-15T00:37:13;-1.80;99.90
7512;DHT22;9999;48.780;9.146;2024-01-15T00:39:40;-1.80;99.90
7512;DHT22;9999;48.780;9.146;2024-01-15T00:42:07;-1.80;99.90
7512;DHT22;9999;48.780;9.146;2024-01-15T00:44:35;-1.90;99.90
7512;DHT22;9999;48.780;9.146;2024-01-15T00:47:02;-1.90;99.90
7512;DHT22;9999;48.780;9.146;2024-01-15T00:49:29;-2.00;99.90
7512;DHT22;9999;48.780;9.146;2024-01-15T00:51:56;-1.90;99.90
7512;DHT22;9999;48.780;9.146;2024-01-15T00:54:23;-1.90;99.90
7512;DHT22;9999;48.780;9.146;2024-01-15T00:56:49;-1.90;99.90
7512;DHT22;9999;48.780;9.146;2024-01-15T00:59:16;-1.90;99.90
7512;DHT22;9999;48.780;9.146;2024-01-15T01:01:45;-1.90;99.90
7512;DHT22;9999;48.780;9.146;2024-01-15T01:04:12;-1.90;99.90
7512;DHT22;9999;48.780;9.146;2024-01-15T01:06:40;-1.90;99.90
7512;DHT22;9999;48.780;9.146;2024-01-15T01:09:07;-1.90;99.90
7512;DHT22;9999;48.780;9.146;2024-01-15T01:11:33;-1.90;99.90
7512;DHT22;9999;48.780;9.146;2024-01-15T01:14:00;-1.80;99.90
7512;DHT22;9999;48.780;9.146;2024-01-15T01:16:27;-1.80;99.90
7512;DHT22;9999;48.780;9.146;2024-01-15T01:18:55;-1.70;99.90
7512;DHT22;9999;48.780;9.146;2024-01-15T01:21:22;-1.70;99.90
7512;DHT22;9999;48.780;9.146;2024-01-15T01:23:49;-1.70;99.90
7512;DHT22;9999;48.780;9.146;2024-01-15T01:26:15;-1.70;99.90
7512;DHT22;9999;48.780;9.146;2024-01-15T01:28:42;-1.70;99.90
7512;DHT22;9999;48.780;9.146;2024-01-15T01:31:09;-1.60;99.90
7512;DHT22;9999;48.780;9.146;2024-01-15T01:33:38;-1.60;99.90
7512;DHT22;9999;48.780;9.146;2024-01-15T01:36:08;-1.60;99.90
7512;DHT22;9999;48.780;9.146;2024-01-15T01:38:35;-1.60;99.90
7512;DHT22;9999;48.780;9.146;2024-01-15T01:41:03;-1.60;99.90
7512;DHT22;9999;48.780;9.146;2024-01-15T01:43:29;-1.60;99.90
7512;DHT22;9999;48.780;9.146;2024-01-15T01:45:57;-1.60;99.90
7512;DHT22;9999;48.780;9.146;2024-01-15T01:48:25;-1.50;99.90
7512;DHT22;9999;48.780;9.146;2024-01-15T01:50:52;-1.60;99.90
7512;DHT22;9999;48.780;9.146;2024-01-15T01:53:22;-1.60;99.90
7512;DHT22;9999;48.780;9.146;2024-01-15T01:55:50;-1.60;99.90
7512;DHT22;9999;48.780;9.146;2024-01-15T01:58:17;-1.50;99.90
7512;DHT22;9999;48.780;9.146;2024-01-15T02:00:44;-1.40;99.90
7512;DHT22;9999;48.780;9.146;2024-01-15T02:03:11;-1.40;99.90
7512;DHT22;9999;48.780;9.146;2024-01-15T02:05:39;-1.50;99.90
7512;DHT22;9999;48.780;9.146;2024-01-15T02:08:06;-1.50;99.90
7512;DHT22;9999;48.780;9.146;2024-01-15T02:10:33;-1.50;99.90
7512;DHT22;9999;48.780;9.146;2024-01-15T02:13:00;-1.60;99.90
7512;DHT22;9999;48.780;9.146;2024-01-15T02:15:27;-1.50;99.90
7512;DHT22;9999;48.780;9.146;2024-01-15T02:17:58;-1.50;99.90
7512;DHT22;9999;48.780;9.146;2024-01-15T02:20:25;-1.50;99.90
7512;DHT22;9999;48.780;9.146;2024-01-15T02:22:52;-1.40;99.90
7512;DHT22;9999;48.780;9.146;2024-01-15T02:25:20;-1.40;99.90
7512;DHT22;9999;48.780;9.146;2024-01-15T02:27:47;-1.50;99.90
7512;DHT22;9999;48.780;9.146;2024-01-15T02:30:14;-1.70;99.90
7512;DHT22;9999;48.780;9.146;2024-01-15T02:32:42;-1.70;99.90
7512;DHT22;9999;48.780;9.146;2024-01-15T02:35:08;-1.70;99.90
7512;DHT22;9999;48.780;9.146;2024-01-15T02:37:36;-1.80;99.90
7512;DHT22;9999;48.780;9.146;2024-01-15T02:40:03;-1.70;99.90
7512;DHT22;9999;48.780;9.146;2024-01-15T02:42:31;-1.70;99.90
7512;DHT22;9999;48.780;9.146;2024-01-15T02:44:58;-1.70;99.90
7512;DHT22;9999;48.780;9.146;2024-01-15T02:47:24;-1.80;99.90
7512;DHT22;9999;48.780;9.146;2024-01-15T02:49:51;-1.80;99.90
7512;DHT22;9999;48.780;9.146;2024-01-15T02:52:18;-1.80;99.90
7512;DHT22;9999;48.780;9.146;2024-01-15T02:54:45;-1.80;99.90
7512;DHT22;9999;48.780;9.146;2024-01-15T02:57:11;-1.90;99.90
7512;DHT22;9999;48.780;9.146;2024-01-15T02:59:39;-1.80;99.90
7512;DHT22;9999;48.780;9.146;2024-01-15T03:02:07;-1.90;99.90
7512;DHT22;9999;48.780;9.146;2024-01-15T03:04:33;-1.80;99.90
7512;DHT22;9999;48.780;9.146;2024-01-15T03:07:00;-1.90;99.90
7512;DHT22;9999;48.780;9.146;2024-01-15T03:09:27;-2.00;99.90
7512;DHT22;9999;48.780;9.146;2024-01-15T03:11:54;-2.00;99.90
7512;DHT22;9999;48.780;9.146;2024-01-15T03:14:21;-2.00;99.90
7512;DHT22;9999;48.780;9.146;2024-01-15T03:16:51;-2.00;99.90
7512;DHT22;9999;48.780;9.146;2024-01-15T03:19:18;-2.00;99.90
7512;DHT22;9999;48.780;9.146;2024-01-15T03:21:44;-2.00;99.90
7512;DHT22;9999;48.780;9.146;2024-01-15T03:24:11;-2.00;99.90
7512;DHT22;9999;48.780;9.146;2024-01-15T03:26:38;-2.10;99.90
7512;DHT22;9999;48.780;9.146;2024-01-15T03:29:05;-2.10;99.90
7512;DHT22;9999;48.780;9.146;2024-01-15T03:31:32;-2.10;99.90
7512;DHT22;9999;48.780;9.146;2024-01-15T03:34:01;-2.10;99.90
7512;DHT22;9999;48.780;9.146;2024-01-15T03:36:27;-2.10;99.90
7512;DHT22;9999;48.780;9.146;2024-01-15T03:38:54;-2.00;99.90
7512;DHT22;9999;48.780;9.146;2024-01-15T03:41:21;-2.10;99.90
7512;DHT22;9999;48.780;9.146;2024-01-15T03:43:48;-2.10;99.90
7512;DHT22;9999;48.780;9.146;2024-01-15T03:46:14;-2.00;99.90
7512;DHT22;9999;48.780;9.146;2024-01-15T03:48:41;-2.00;99.90
7512;DHT22;9999;48.780;9.146;2024-01-15T03:51:09;-1.90;99.90
7512;DHT22;9999;48.780;9.146;2024-01-15T03:53:37;-1.90;99.90
7512;DHT22;9999;48.780;9.146;2024-01-15T03:56:04;-1.80;99.90
7512;DHT22;9999;48.780;9.146;2024-01-15T03:58:31;-1.60;99.90
7512;DHT22;9999;48.780;9.146;2024-01-15T04:00:58;-1.70;99.90
7512;DHT22;9999;48.780;9.146;2024-01-15T04:03:24;-1.60;99.90
7512;DHT22;9999;48.780;9.146;2024-01-15T04:05:51;-1.50;99.90
7512;DHT22;9999;48.780;9.146;2024-01-15T04:08:19;-1.40;99.90
7512;DHT22;9999;48.780;9.146;2024-01-15T04:10:46;-1.40;99.90
7512;DHT22;9999;48.780;9.146;2024-01-15T04:13:13;-1.40;99.90
7512;DHT22;9999;48.780;9.146;2024-01-15T04:15:39;-1.40;99.90
7512;DHT22;9999;48.780;9.146;2024-01-15T04:18:06;-1.20;99.90
7512;DHT22;9999;48.780;9.146;2024-01-15T04:20:33;-1.20;99.90
7512;DHT22;9999;48.780;9.146;2024-01-15T04:22:59;-1.20;99.90
7512;DHT22;9999;48.780;9.146;2024-01-15T04:25:27;-1.20;99.90
7512;DHT22;9999;48.780;9.146;2024-01-15T04:27:54;-1.10;99.90
7512;DHT22;9999;48.780;9.146;2024-01-15T04:30:21;-1.10;99.90
7512;DHT22;9999;48.780;9.146;2024-01-15T04:32:48;-1.10;99.90
7512;DHT22;9999;48.780;9.146;2024-01-15T04:35:14;-1.10;99.90
7512;DHT22;9999;48.780;9.146;2024-01-15T04:37:41;-1.10;99.90
7512;DHT22;9999;48.780;9.146;2024-01-15T04:40:09;-1.00;99.90
7512;DHT22;9999;48.780;9.146;2024-01-15T04:42:37;-1.00;99.90
7512;DHT22;9999;48.780;9.146;2024-01-15T04:45:04;-1.00;99.90
7512;DHT22;9999;48.780;9.146;2024-01-15T04:47:31;-1.00;99.90
7512;DHT22;9999;48.780;9.146;2024-01-15T04:49:58;-1.00;99.90
7512;DHT22;9999;48.780;9.146;2024-01-15T04:52:25;-1.00;99.90
7512;DHT22;9999;48.780;9.146;2024-01-15T04:54:51;-0.90;99.90
7512;DHT22;9999;48.780;9.146;2024-01-15T04:57:18;-0.90;99.90
7512;DHT22;9999;48.780;9.146;2024-01-15T04:59:46;-0.90;99.90
7512;DHT22;9999;48.780;9.146;2024-01-15T05:02:13;-0.80;99.90
7512;DHT22;9999;48.780;9.146;2024-01-15T05:04:40;-0.90;99.90
7512;DHT22;9999;48.780;9.146;2024-01-15T05:07:06;-0.80;99.90
7512;DHT22;9999;48.780;9.146;2024-01-15T05:09:34;-0.80;99.90
7512;DHT22;9999;48.780;9.146;2024-01-15T05:12:00;-0.80;99.90
7512;DHT22;9999;48.780;9.146;2024-01-15T05:14:27;-0.80;99.90
7512;DHT22;9999;48.780;9.146;2024-01-15T05:16:55;-0.80;99.90
7512;DHT22;9999;48.780;9.146;2024-01-15T05:19:22;-0.80;99.90
7512;DHT22;9999;48.780;9.146;2024-01-15T05:21:49;-0.80;99.90
7512;DHT22;9999;48.780;9.146;2024-01-15T05:24:16;-0.80;99.90
7512;DHT22;9999;48.780;9.146;2024-01-15T05:26:43;-0.70;99.90
7512;DHT22;9999;48.780;9.146;2024-01-15T05:29:09;-0.80;99.90
7512;DHT22;9999;48.780;9.146;2024-01-15T05:31:36;-0.80;99.90
7512;DHT22;9999;48.780;9.146;2024-01-15T05:34:04;-0.70;99.90
7512;DHT22;9999;48.780;9.146;2024-01-15T05:36:31;-0.70;99.90
7512;DHT22;9999;48.780;9.146;2024-01-15T05:38:58;-0.70;99.90
7512;DHT22;9999;48.780;9.146;2024-01-15T05:41:24;-0.70;99.90
7512;DHT22;9999;48.780;9.146;2024-01-15T05:43:52;-0.70;99.90
7512;DHT22;9999;48.780;9.146;2024-01-15T05:46:18;-0.60;99.90
7512;DHT22;9999;48.780;9.146;2024-01-15T05:48:45;-0.70;99.90
7512;DHT22;9999;48.780;9.146;2024-01-15T05:51:13;-0.70;99.90
7512;DHT22;9999;48.780;9.146;2024-01-15T05:53:40;-0.70;99.90
7512;DHT22;9999;48.780;9.146;2024-01-15T05:56:08;-0.60;99.90
7512;DHT22;9999;48.780;9.146;2024-01-15T05:58:36;-0.60;99.90
7512;DHT22;9999;48.780;9.146;2024-01-15T06:01:03;-0.60;99.90
7512;DHT22;9999;48.780;9.146;2024-01-15T06:03:29;-0.60;99.90
7512;DHT22;9999;48.780;9.146;2024-01-15T06:05:56;-0.60;99.90
7512;DHT22;9999;48.780;9.146;2024-01-15T06:08:24;-0.60;99.90
7512;DHT22;9999;48.780;9.146;2024-01-15T06:10:53;-0.60;99.90
7512;DHT22;9999;48.780;9.146;2024-01-15T06:13:20;-0.60;99.90
7512;DHT22;9999;48.780;9.146;2024-01-15T06:15:47;-0.60;99.90
7512;DHT22;9999;48.780;9.146;2024-01-15T06:18:13;-0.60;99.90
7512;DHT22;9999;48.780;9.146;2024-01-15T06:20:40;-0.60;99.90
7512;DHT22;9999;48.780;9.146;2024-01-15T06:23:07;-0.60;99.90
7512;DHT22;9999;48.780;9.146;2024-01-15T06:25:35;-0.60;99.90
7512;DHT22;9999;48.780;9.146;2024-01-15T06:28:02;-0.60;99.90
7512;DHT22;9999;48.780;9.146;2024-01-15T06:30:30;-0.60;99.90
7512;DHT22;9999;48.780;9.146;2024-01-15T06:32:57;-0.60;99.90
7512;DHT22;9999;48.780;9.146;2024-01-15T06:35:23;-0.60;99.90
7512;DHT22;9999;48.780;9.146;2024-01-15T06:37:50;-0.50;99.90
7512;DHT22;9999;48.780;9.146;2024-01-15T06:40:17;-0.60;99.90
7512;DHT22;9999;48.780;9.146;2024-01-15T06:42:45;-0.50;99.90
7512;DHT22;9999;48.780;9.146;2024-01-15T06:45:12;-0.50;99.90
7512;DHT22;9999;48.780;9.146;2024-01-15T06:47:39;-0.60;99.90
7512;DHT22;9999;48.780;9.146;2024-01-15T06:50:06;-0.60;99.90
7512;DHT22;9999;48.780;9.146;2024-01-15T06:52:32;-0.50;99.90
7512;DHT22;9999;48.780;9.146;2024-01-15T06:54:59;-0.50;99.90
7512;DHT22;9999;48.780;9.146;2024-01-15T06:57:26;-0.60;99.90
7512;DHT22;9999;48.780;9.146;2024-01-15T06:59:54;-0.50;99.90
7512;DHT22;9999;48.780;9.146;2024-01-15T07:02:21;-0.50;99.90
7512;DHT22;9999;48.780;9.146;2024-01-15T07:04:48;-0.60;99.90
7512;DHT22;9999;48.780;9.146;2024-01-15T07:07:14;-0.50;99.90
7512;DHT22;9999;48.780;9.146;2024-01-15T07:09:41;-0.50;99.90
7512;DHT22;9999;48.780;9.146;2024-01-15T07:12:08;-0.50;99.90
7512;DHT22;9999;48.780;9.146;2024-01-15T07:14:35;-0.40;99.90
7512;DHT22;9999;48.780;9.146;2024-01-15T07:17:03;-0.50;99.90
7512;DHT22;9999;48.780;9.146;2024-01-15T07:19:30;-0.40;99.90
7512;DHT22;9999;48.780;9.146;2024-01-15T07:21:56;-0.40;99.90
7512;DHT22;9999;48.780;9.146;2024-01-15T07:24:23;-0.40;99.90
7512;DHT22;9999;48.780;9.146;2024-01-15T07:26:50;-0.50;99.90
7512;DHT22;9999;48.780;9.146;2024-01-15T07:29:17;-0.40;99.90
7512;DHT22;9999;48.780;9.146;2024-01-15T07:31:48;-0.50;99.90
7512;DHT22;9999;48.780;9.146;2024-01-15T07:34:16;-0.40;99.90
7512;DHT22;9999;48.780;9.146;2024-01-15T07:36:44;-0.40;99.90
7512;DHT22;9999;48.780;9.146;2024-01-15T07:39:10;-0.40;99.90
7512;DHT22;9999;48.780;9.146;2024-01-15T07:41:37;-0.30;99.90
7512;DHT22;9999;48.780;9.146;2024-01-15T07:44:06;-0.40;99.90
7512;DHT22;9999;48.780;9.146;2024-01-15T07:46:33;-0.30;99.90
7512;DHT22;9999;48.780;9.146;2024-01-15T07:48:59;-0.30;99.90
7512;DHT22;9999;48.780;9.146;2024-01-15T07:51:28;-0.30;99.90
7512;DHT22;9999;48.780;9.146;2024-01-15T07:53:55;-0.30;99.90
7512;DHT22;9999;48.780;9.146;2024-01-15T07:56:21;-0.30;99.90
7512;DHT22;9999;48.780;9.146;2024-01-15T07:58:48;-0.30;99.90
7512;DHT22;9999;48.780;9.146;2024-01-15T08:01:15;-0.30;99.90
7512;DHT22;9999;48.780;9.146;2024-01-15T08:03:42;-0.30;99.90
7512;DHT22;9999;48.780;9.146;2024-01-15T08:06:09;-0.30;99.90
7512;DHT22;9999;48.780;9.146;2024-01-15T08:08:38;-0.30;99.90
7512;DHT22;9999;48.780;9.146;2024-01-15T08:11:04;-0.30;99.90
7512;DHT22;9999;48.780;9.146;2024-01-15T08:13:31;-0.30;99.90
7512;DHT22;9999;48.780;9.146;2024-01-15T08:15:58;-0.20;99.90
7512;DHT22;9999;48.780;9.146;2024-01-15T08:18:25;-0.20;99.90
7512;DHT22;9999;48.780;9.146;2024-01-15T08:20:52;-0.20;99.90
7512;DHT22;9999;48.780;9.146;2024-01-15T08:23:19;-0.30;99.90
7512;DHT22;9999;48.780;9.146;2024-01-15T08:25:48;-0.20;99.90
7512;DHT22;9999;48.780;9.146;2024-01-15T08:28:16;-0.20;99.90
7512;DHT22;9999;48.780;9.146;2024-01-15T08:30:43;-0.20;99.90
7512;DHT22;9999;48.780;9.146;2024-01-15T08:33:09;-0.20;99.90
7512;DHT22;9999;48.780;9.146;2024-01-15T08:35:36;-0.20;99.90
7512;DHT22;9999;48.780;9.146;2024-01-15T08:38:03;-0.20;99.90
7512;DHT22;9999;48.780;9.146;2024-01-15T08:40:31;-0.10;99.90
7512;DHT22;9999;48.780;9.146;2024-01-15T08:42:59;-0.10;99.90
7512;DHT22;9999;48.780;9.146;2024-01-15T08:45:27;-0.10;99.90
7512;DHT22;9999;48.780;9.146;2024-01-15T08:47:54;0.00;99.90
7512;DHT22;9999;48.780;9.146;2024-01-15T08:50:21;0.00;99.90
7512;DHT22;9999;48.780;9.146;2024-01-15T08:52:47;0.00;99.90
7512;DHT22;9999;48.780;9.146;2024-01-15T08:55:14;0.10;99.90
7512;DHT22;9999;48.780;9.146;2024-01-15T08:57:41;0.10;99.90
7512;DHT22;9999;48.780;9.146;2024-01-15T09:00:11;0.20;99.90
7512;DHT22;9999;48.780;9.146;2024-01-15T09:02:38;0.20;99.90
7512;DHT22;9999;48.780;9.146;2024-01-15T09:05:07;0.20;99.90
7512;DHT22;9999;48.780;9.146;2024-01-15T09:07:34;0.20;99.90
7512;DHT22;9999;48.780;9.146;2024-01-15T09:10:01;0.20;99.90
7512;DHT22;9999;48.780;9.146;2024-01-15T09:12:28;0.30;99.90
7512;DHT22;9999;48.780;9.146;2024-01-15T09:14:55;0.30;99.90
7512;DHT22;9999;48.780;9.146;2024-01-15T09:17:23;0.30;99.90
7512;DHT22;9999;48.780;9.146;2024-01-15T09:19:50;0.30;99.90
7512;DHT22;9999;48.780;9.146;2024-01-15T09:22:17;0.30;99.90
7512;DHT22;9999;48.780;9.146;2024-01-15T09:24:44;0.30;99.90
7512;DHT22;9999;48.780;9.146;2024-01-15T09:27:14;0.30;99.90
7512;DHT22;9999;48.780;9.146;2024-01-15T09:29:41;0.30;99.90
7512;DHT22;9999;48.780;9.146;2024-01-15T09:32:11;0.40;99.90
7512;DHT22;9999;48.780;9.146;2024-01-15T09:34:39;0.40;99.90
7512;DHT22;9999;48.780;9.146;2024-01-15T09:37:06;0.50;99.90
7512;DHT22;9999;48.780;9.146;2024-01-15T09:39:33;0.50;99.90
7512;DHT22;9999;48.780;9.146;2024-01-15T09:42:01;0.50;99.90
7512;DHT22;9999;48.780;9.146;2024-01-15T09:44:29;0.60;99.90
7512;DHT22;9999;48.780;9.146;2024-01-15T09:46:56;0.60;99.90
7512;DHT22;9999;48.780;9.146;2024-01-15T09:49:24;0.60;99.90
7512;DHT22;9999;48.780;9.146;2024-01-15T09:51:52;0.60;99.90
7512;DHT22;9999;48.780;9.146;2024-01-15T09:54:20;0.60;99.90
7512;DHT22;9999;48.780;9.146;2024-01-15T09:56:47;0.60;99.90
7512;DHT22;9999;48.780;9.146;2024-01-15T09:59:15;0.70;99.90
7512;DHT22;9999;48.780;9.146;2024-01-15T10:01:44;0.70;99.90
7512;DHT22;9999;48.780;9.146;2024-01-15T10:04:11;0.70;99.90
7512;DHT22;9999;48.780;9.146;2024-01-15T10:06:39;0.70;99.90
7512;DHT22;9999;48.780;9.146;2024-01-15T10:09:08;0.70;99.90
7512;DHT22;9999;48.780;9.146;2024-01-15T10:11:36;0.70;99.90
7512;DHT22;9999;48.780;9.146;2024-01-15T10:14:04;0.80;99.90
7512;DHT22;9999;48.780;9.146;2024-01-15T10:16:31;0.70;99.90
7512;DHT22;9999;48.780;9.146;2024-01-15T10:18:58;0.70;99.90
7512;DHT22;9999;48.780;9.146;2024-01-15T10:21:25;0.80;99.90
7512;DHT22;9999;48.780;9.146;2024-01-15T10:23:53;0.80;99.90
7512;DHT22;9999;48.780;9.146;2024-01-15T10:26:25;0.80;99.90
7512;DHT22;9999;48.780;9.146;2024-01-15T10:28:52;0.80;99.90
7512;DHT22;9999;48.780;9.146;2024-01-15T10:31:19;0.80;99.90
7512;DHT22;9999;48.780;9.146;2024-01-15T10:33:47;0.90;99.90
7512;DHT22;9999;48.780;9.146;2024-01-15T10:36:15;0.80;99.90
7512;DHT22;9999;48.780;9.146;2024-01-15T10:38:43;0.90;99.90
7512;DHT22;9999;48.780;9.146;2024-01-15T10:41:10;1.00;99.90
7512;DHT22;9999;48.780;9.146;2024-01-15T10:43:38;0.90;99.90
7512;DHT22;9999;48.780;9.146;2024-01-15T10:46:07;0.90;99.90
7512;DHT22;9999;48.780;9.146;2024-01-15T10:48:34;0.90;99.90
7512;DHT22;9999;48.780;9.146;2024-01-15T10:51:01;1.00;99.90
7512;DHT22;9999;48.780;9.146;2024-01-15T10:53:37;1.00;99.90
7512;DHT22;9999;48.780;9.146;2024-01-15T10:56:05;1.00;99.90
7512;DHT22;9999;48.780;9.146;2024-01-15T10:58:33;1.00;99.90
7512;DHT22;9999;48.780;9.146;2024-01-15T11:01:02;1.10;99.90
7512;DHT22;9999;48.780;9.146;2024-01-15T11:03:30;1.20;99.90
7512;DHT22;9999;48.780;9.146;2024-01-15T11:05:57;1.10;99.90
7512;DHT22;9999;48.780;9.146;2024-01-15T11:08:26;1.20;99.90
7512;DHT22;9999;48.780;9.146;2024-01-15T11:10:56;1.20;99.90
7512;DHT22;9999;48.780;9.146;2024-01-15T11:13:40;1.20;99.90
7512;DHT22;9999;48.780;9.146;2024-01-15T11:16:10;1.20;99.90
7512;DHT22;9999;48.780;9.146;2024-01-15T11:18:39;1.20;99.90
7512;DHT22;9999;48.780;9.146;2024-01-15T11:21:22;1.10;99.90
7512;DHT22;9999;48.780;9.146;2024-01-15T11:23:52;1.00;99.90
7512;DHT22;9999;48.780;9.146;2024-01-15T11:26:35;0.90;99.90
7512;DHT22;9999;48.780;9.146;2024-01-15T11:29:04;0.90;99.90
7512;DHT22;9999;48.780;9.146;2024-01-15T11:31:59;0.90;99.90
7512;DHT22;9999;48.780;9.146;2024-01-15T11:34:58;0.90;99.90
7512;DHT22;9999;48.780;9.146;2024-01-15T11:37:27;1.00;99.90
7512;DHT22;9999;48.780;9.146;2024-01-15T11:39:56;1.00;99.90
7512;DHT22;9999;48.780;9.146;2024-01-15T11:42:23;1.00;99.90
7512;DHT22;9999;48.780;9.146;2024-01-15T11:44:50;1.00;99.90
7512;DHT22;9999;48.780;9.146;2024-01-15T11:50:13;0.90;99.90
7512;DHT22;9999;48.780;9.146;2024-01-15T11:52:48;0.90;99.90
7512;DHT22;9999;48.780;9.146;2024-01-15T11:55:21;0.90;99.90
7512;DHT22;9999;48.780;9.146;2024-01-15T11:57:50;0.90;99.90
7512;DHT22;9999;48.780;9.146;2024-01-15T12:00:18;0.90;99.90
7512;DHT22;9999;48.780;9.146;2024-01-15T12:02:48;0.80;99.90
7512;DHT22;9999;48.780;9.146;2024-01-15T12:05:17;0.80;99.90
7512;DHT22;9999;48.780;9.146;2024-01-15T12:07:45;0.80;99.90
7512;DHT22;9999;48.780;9.146;2024-01-15T12:10:15;0.80;99.90
7512;DHT22;9999;48.780;9.146;2024-01-15T12:13:03;0.80;99.90
7512;DHT22;9999;48.780;9.146;2024-01-15T12:15:31;0.80;99.90
7512;DHT22;9999;48.780;9.146;2024-01-15T12:18:01;0.80;99.90
7512;DHT22;9999;48.780;9.146;2024-01-15T12:20:29;0.70;99.90
7512;DHT22;9999;48.780;9.146;2024-01-15T12:22:57;0.80;99.90
7512;DHT22;9999;48.780;9.146;2024-01-15T12:25:24;0.70;99.90
7512;DHT22;9999;48.780;9.146;2024-01-15T12:27:53;0.60;99.90
7512;DHT22;9999;48.780;9.146;2024-01-15T12:30:20;0.50;99.90
7512;DHT22;9999;48.780;9.146;2024-01-15T12:32:47;0.50;99.90
7512;DHT22;9999;48.780;9.146;2024-01-15T12:35:15;0.50;99.90
7512;DHT22;9999;48.780;9.146;2024-01-15T12:37:43;0.60;99.90
7512;DHT22;9999;48.780;9.146;2024-01-15T12:40:12;0.50;99.90
7512;DHT22;9999;48.780;9.146;2024-01-15T12:42:40;0.50;99.90
7512;DHT22;9999;48.780;9.146;2024-01-15T12:45:08;0.40;99.90
7512;DHT22;9999;48.780;9.146;2024-01-15T12:47:36;0.30;99.90
7512;DHT22;9999;48.780;9.146;2024-01-15T12:50:06;0.30;99.90
7512;DHT22;9999;48.780;9.146;2024-01-15T12:52:34;0.30;99.90
7512;DHT22;9999;48.780;9.146;2024-01-15T12:55:04;0.40;99.90
7512;DHT22;9999;48.780;9.146;2024-01-15T12:57:30;0.30;99.90
7512;DHT22;9999;48.780;9.146;2024-01-15T12:59:57;0.30;99.90
7512;DHT22;9999;48.780;9.146;2024-01-15T13:02:24;0.40;99.90
7512;DHT22;9999;48.780;9.146;2024-01-15T13:04:51;0.40;99.90
7512;DHT22;9999;48.780;9.146;2024-01-15T13:07:19;0.40;99.90
7512;DHT22;9999;48.780;9.146;2024-01-15T13:09:47;0.40;99.90
7512;DHT22;9999;48.780;9.146;2024-01-15T13:12:17;0.40;99.90
7512;DHT22;9999;48.780;9.146;2024-01-15T13:14:44;0.40;99.90
7512;DHT22;9999;48.780;9.146;2024-01-15T13:17:11;0.50;99.90
7512;DHT22;9999;48.780;9.146;2024-01-15T13:19:37;0.50;99.90
7512;DHT22;9999;48.780;9.146;2024-01-15T13:22:04;0.50;99.90
7512;DHT22;9999;48.780;9.146;2024-01-15T13:24:32;0.40;99.90
7512;DHT22;9999;48.780;9.146;2024-01-15T13:27:00;0.40;99.90
7512;DHT22;9999;48.780;9.146;2024-01-15T13:29:27;0.40;99.90
7512;DHT22;9999;48.780;9.146;2024-01-15T13:31:54;0.40;99.90
7512;DHT22;9999;48.780;9.146;2024-01-15T13:34:21;0.30;99.90
7512;DHT22;9999;48.780;9.146;2024-01-15T13:36:48;0.40;99.90
7512;DHT22;9999;48.780;9.146;2024-01-15T13:39:15;0.40;99.90
7512;DHT22;9999;48.780;9.146;2024-01-15T13:41:45;0.40;99.90
7512;DHT22;9999;48.780;9.146;2024-01-15T13:44:13;0.50;99.90
7512;DHT22;9999;48.780;9.146;2024-01-15T13:46:40;0.50;99.90
7512;DHT22;9999;48.780;9.146;2024-01-15T13:49:07;0.50;99.90
7512;DHT22;9999;48.780;9.146;2024-01-15T13:51:35;0.50;99.90
7512;DHT22;9999;48.780;9.146;2024-01-15T13:54:02;0.50;99.90
7512;DHT22;9999;48.780;9.146;2024-01-15T13:56:30;0.50;99.90
7512;DHT22;9999;48.780;9.146;2024-01-15T13:58:58;0.60;99.90
7512;DHT22;9999;48.780;9.146;2024-01-15T14:01:27;0.60;99.90
7512;DHT22;9999;48.780;9.146;2024-01-15T14:03:54;0.50;99.90
7512;DHT22;9999;48.780;9.146;2024-01-15T14:06:20;0.60;99.90
7512;DHT22;9999;48.780;9.146;2024-01-15T14:08:47;0.60;99.90
7512;DHT22;9999;48.780;9.146;2024-01-15T14:11:14;0.60;99.90
7512;DHT22;9999;48.780;9.146;2024-01-15T14:13:41;0.60;99.90
7512;DHT22;9999;48.780;9.146;2024-01-15T14:16:08;0.50;99.90
7512;DHT22;9999;48.780;9.146;2024-01-15T14:18:36;0.60;99.90
7512;DHT22;9999;48.780;9.146;2024-01-15T14:21:03;0.50;99.90
7512;DHT22;9999;48.780;9.146;2024-01-15T14:23:30;0.50;99.90
7512;DHT22;9999;48.780;9.146;2024-01-15T14:25:57;0.50;99.90
7512;DHT22;9999;48.780;9.146;2024-01-15T14:28:23;0.50;99.90
7512;DHT22;9999;48.780;9.146;2024-01-15T14:30:50;0.50;99.90
7512;DHT22;9999;48.780;9.146;2024-01-15T14:33:17;0.50;99.90
7512;DHT22;9999;48.780;9.146;2024-01-15T14:35:47;0.50;99.90
7512;DHT22;9999;48.780;9.146;2024-01-15T14:38:14;0.50;99.90
7512;DHT22;9999;48.780;9.146;2024-01-15T14:40:41;0.40;99.90
7512;DHT22;9999;48.780;9.146;2024-01-15T14:43:09;0.40;99.90
7512;DHT22;9999;48.780;9.146;2024-01-15T14:45:36;0.40;99.90
7512;DHT22;9999;48.780;9.146;2024-01-15T14:48:03;0.40;99.90
7512;DHT22;9999;48.780;9.146;2024-01-15T14:50:30;0.40;99.90
7512;DHT22;9999;48.780;9.146;2024-01-15T14:52:58;0.40;99.90
7512;DHT22;9999;48.780;9.146;2024-01-15T14:55:25;0.30;99.90
7512;DHT22;9999;48.780;9.146;2024-01-15T14:57:52;0.20;99.90
7512;DHT22;9999;48.780;9.146;2024-01-15T15:00:20;0.20;99.90
7512;DHT22;9999;48.780;9.146;2024-01-15T15:02:48;0.20;99.90
7512;DHT22;9999;48.780;9.146;2024-01-15T15:05:15;0.10;99.90
7512;DHT22;9999;48.780;9.146;2024-01-15T15:07:43;0.10;99.90
7512;DHT22;9999;48.780;9.146;2024-01-15T15:10:11;0.10;99.90
7512;DHT22;9999;48.780;9.146;2024-01-15T15:12:38;0.10;99.90
7512;DHT22;9999;48.780;9.146;2024-01-15T15:15:06;0.20;99.90
7512;DHT22;9999;48.780;9.146;2024-01-15T15:17:33;0.10;99.90
7512;DHT22;9999;48.780;9.146;2024-01-15T15:20:00;0.10;99.90
7512;DHT22;9999;48.780;9.146;2024-01-15T15:22:28;0.10;99.90
7512;DHT22;9999;48.780;9.146;2024-01-15T15:24:55;0.10;99.90
7512;DHT22;9999;48.780;9.146;2024-01-15T15:27:23;0.10;99.90
7512;DHT22;9999;48.780;9.146;2024-01-15T15:29:50;0.20;99.90
7512;DHT22;9999;48.780;9.146;2024-01-15T15:32:17;0.10;99.90
7512;DHT22;9999;48.780;9.146;2024-01-15T15:34:44;0.20;99.90
7512;DHT22;9999;48.780;9.146;2024-01-15T15:37:11;0.20;99.90
7512;DHT22;9999;48.780;9.146;2024-01-15T15:39:41;0.20;99.90
7512;DHT22;9999;48.780;9.146;2024-01-15T15:42:08;0.10;99.90
7512;DHT22;9999;48.780;9.146;2024-01-15T15:44:36;0.00;99.90
7512;DHT22;9999;48.780;9.146;2024-01-15T15:47:03;0.10;99.90
7512;DHT22;9999;48.780;9.146;2024-01-15T15:49:30;0.00;99.90
7512;DHT22;9999;48.780;9.146;2024-01-15T15:51:57;0.00;99.90
7512;DHT22;9999;48.780;9.146;2024-01-15T15:54:24;0.00;99.90
7512;DHT22;9999;48.780;9.146;2024-01-15T15:56:51;0.10;99.90
7512;DHT22;9999;48.780;9.146;2024-01-15T15:59:17;0.00;99.90
7512;DHT22;9999;48.780;9.146;2024-01-15T16:01:48;-0.10;99.90
7512;DHT22;9999;48.780;9.146;2024-01-15T16:04:15;-0.10;99.90
7512;DHT22;9999;48.780;9.146;2024-01-15T16:06:43;-0.10;99.90
7512;DHT22;9999;48.780;9.146;2024-01-15T16:09:12;-0.10;99.90
7512;DHT22;9999;48.780;9.146;2024-01-15T16:11:39;-0.10;99.90
7512;DHT22;9999;48.780;9.146;2024-01-15T16:14:06;-0.10;99.90